createdAt,value
2023-05-13T00:00:28.800Z,12.13
2023-05-13T00:01:28.988Z,12.13
2023-05-13T00:02:28.880Z,12.08
2023-05-13T00:03:29.015Z,12.03
2023-05-13T00:04:28.856Z,11.97
2023-05-13T00:05:28.750Z,11.93
2023-05-13T00:06:28.857Z,11.91
2023-05-13T00:07:28.758Z,11.89
2023-05-13T00:08:28.733Z,11.91
2023-05-13T00:09:28.790Z,11.91
2023-05-13T00:10:28.759Z,11.88
2023-05-13T00:11:28.703Z,11.80
2023-05-13T00:12:28.756Z,11.77
2023-05-13T00:13:28.685Z,11.77
2023-05-13T00:14:28.687Z,11.77
2023-05-13T00:15:28.719Z,11.77
2023-05-13T00:16:28.895Z,11.76
2023-05-13T00:17:28.652Z,11.73
2023-05-13T00:18:28.714Z,11.70
2023-05-13T00:19:28.634Z,11.70
2023-05-13T00:20:28.749Z,11.70
2023-05-13T00:21:28.620Z,11.73
2023-05-13T00:22:28.604Z,11.71
2023-05-13T00:23:28.678Z,11.71
2023-05-13T00:24:28.579Z,11.69
2023-05-13T00:25:28.598Z,11.71
2023-05-13T00:26:28.694Z,11.71
2023-05-13T00:27:28.534Z,11.69
2023-05-13T00:28:28.570Z,11.67
2023-05-13T00:29:28.542Z,11.64
2023-05-13T00:30:28.509Z,11.66
2023-05-13T00:31:28.670Z,11.67
2023-05-13T00:32:28.530Z,11.69
2023-05-13T00:33:28.491Z,11.67
2023-05-13T00:34:28.563Z,11.66
2023-05-13T00:35:28.444Z,11.69
2023-05-13T00:36:28.536Z,11.70
2023-05-13T00:37:28.452Z,11.69
2023-05-13T00:38:28.454Z,11.67
2023-05-13T00:39:28.432Z,11.70
2023-05-13T00:40:28.446Z,11.69
2023-05-13T00:41:28.399Z,11.66
2023-05-13T00:42:28.409Z,11.67
2023-05-13T00:43:28.363Z,11.66
2023-05-13T00:44:28.455Z,11.64
2023-05-13T00:45:28.383Z,11.64
2023-05-13T00:46:28.472Z,11.64
2023-05-13T00:47:28.439Z,11.64
2023-05-13T00:48:28.304Z,11.67
2023-05-13T00:49:28.328Z,11.67
2023-05-13T00:50:28.310Z,11.67
2023-05-13T00:51:28.340Z,11.67
2023-05-13T00:52:28.304Z,11.64
2023-05-13T00:53:28.281Z,11.66
2023-05-13T00:54:28.347Z,11.64
2023-05-13T00:55:28.263Z,11.62
2023-05-13T00:56:28.242Z,11.62
2023-05-13T00:57:28.346Z,11.64
2023-05-13T00:58:28.270Z,11.66
2023-05-13T00:59:28.321Z,11.64
2023-05-13T01:00:28.166Z,11.62
2023-05-13T01:01:28.246Z,11.64
2023-05-13T01:02:28.239Z,11.66
2023-05-13T01:03:28.231Z,11.67
2023-05-13T01:04:28.151Z,11.69
2023-05-13T01:05:28.212Z,11.69
2023-05-13T01:06:28.148Z,11.71
2023-05-13T01:07:28.113Z,11.76
2023-05-13T01:08:28.122Z,11.76
2023-05-13T01:09:28.132Z,11.77
2023-05-13T01:10:28.199Z,11.82
2023-05-13T01:11:28.038Z,11.80
2023-05-13T01:12:28.050Z,11.79
2023-05-13T01:13:28.058Z,11.77
2023-05-13T01:14:28.059Z,11.77
2023-05-13T01:15:28.049Z,11.77
2023-05-13T01:16:28.076Z,11.80
2023-05-13T01:17:28.115Z,11.80
2023-05-13T01:18:28.024Z,11.79
2023-05-13T01:19:27.986Z,11.79
2023-05-13T01:20:27.995Z,11.79
2023-05-13T01:21:28.072Z,11.82
2023-05-13T01:22:27.952Z,11.80
2023-05-13T01:23:27.933Z,11.84
2023-05-13T01:24:28.053Z,11.84
2023-05-13T01:25:27.947Z,11.84
2023-05-13T01:26:27.950Z,11.87
2023-05-13T01:27:27.926Z,11.88
2023-05-13T01:28:27.862Z,11.87
2023-05-13T01:29:27.901Z,11.87
2023-05-13T01:30:27.865Z,11.87
2023-05-13T01:31:27.975Z,11.85
2023-05-13T01:32:27.884Z,11.87
2023-05-13T01:33:27.936Z,11.87
2023-05-13T01:34:27.877Z,11.85
2023-05-13T01:35:27.827Z,11.87
2023-05-13T01:36:27.811Z,11.84
2023-05-13T01:37:27.821Z,11.80
2023-05-13T01:38:27.873Z,11.82
2023-05-13T01:39:27.774Z,11.80
2023-05-13T01:40:32.690Z,11.80
2023-05-13T01:41:27.813Z,11.77
2023-05-13T01:42:27.764Z,11.79
2023-05-13T01:43:27.796Z,11.79
2023-05-13T01:44:27.703Z,11.80
2023-05-13T01:45:27.736Z,11.77
2023-05-13T01:46:27.811Z,11.76
2023-05-13T01:47:27.730Z,11.74
2023-05-13T01:48:27.830Z,11.73
2023-05-13T01:49:27.703Z,11.73
2023-05-13T01:50:27.668Z,11.71
2023-05-13T01:51:27.693Z,11.73
2023-05-13T01:52:27.684Z,11.71
2023-05-13T01:53:27.637Z,11.70
2023-05-13T01:54:27.670Z,11.70
2023-05-13T01:55:27.624Z,11.71
2023-05-13T01:56:27.615Z,11.71
2023-05-13T01:57:27.588Z,11.70
2023-05-13T01:58:27.693Z,11.70
2023-05-13T01:59:27.591Z,11.69
2023-05-13T02:00:27.573Z,11.69
2023-05-13T02:01:27.573Z,11.70
2023-05-13T02:02:27.576Z,11.67
2023-05-13T02:03:27.597Z,11.69
2023-05-13T02:04:27.495Z,11.67
2023-05-13T02:05:27.544Z,11.69
2023-05-13T02:06:27.492Z,11.69
2023-05-13T02:07:27.520Z,11.66
2023-05-13T02:08:27.571Z,11.64
2023-05-13T02:09:27.466Z,11.64
2023-05-13T02:10:27.469Z,11.64
2023-05-13T02:11:27.453Z,11.66
2023-05-13T02:12:27.389Z,11.62
2023-05-13T02:13:27.454Z,11.66
2023-05-13T02:14:27.479Z,11.66
2023-05-13T02:15:27.416Z,11.66
2023-05-13T02:16:27.473Z,11.67
2023-05-13T02:17:27.413Z,11.66
2023-05-13T02:18:27.338Z,11.66
2023-05-13T02:19:27.419Z,11.66
2023-05-13T02:20:27.353Z,11.66
2023-05-13T02:21:27.322Z,11.62
2023-05-13T02:22:27.350Z,11.62
2023-05-13T02:23:27.312Z,11.62
2023-05-13T02:24:27.332Z,11.61
2023-05-13T02:25:27.303Z,11.59
2023-05-13T02:26:27.309Z,11.58
2023-05-13T02:27:27.243Z,11.58
2023-05-13T02:28:27.286Z,11.56
2023-05-13T02:29:27.232Z,11.55
2023-05-13T02:30:27.262Z,11.55
2023-05-13T02:31:27.301Z,11.54
2023-05-13T02:32:27.251Z,11.54
2023-05-13T02:33:27.207Z,11.52
2023-05-13T02:34:27.195Z,11.52
2023-05-13T02:35:27.242Z,11.51
2023-05-13T02:36:27.164Z,11.52
2023-05-13T02:37:27.219Z,11.51
2023-05-13T02:38:27.174Z,11.51
2023-05-13T02:39:27.144Z,11.48
2023-05-13T02:40:27.198Z,11.46
2023-05-13T02:41:27.126Z,11.49
2023-05-13T02:42:27.106Z,11.45
2023-05-13T02:43:27.081Z,11.45
2023-05-13T02:44:27.083Z,11.48
2023-05-13T02:45:27.068Z,11.45
2023-05-13T02:46:27.112Z,11.43
2023-05-13T02:47:27.140Z,11.45
2023-05-13T02:48:27.034Z,11.41
2023-05-13T02:49:27.033Z,11.40
2023-05-13T02:50:27.098Z,11.38
2023-05-13T02:51:27.031Z,11.37
2023-05-13T02:52:27.021Z,11.37
2023-05-13T02:53:27.008Z,11.37
2023-05-13T02:54:26.953Z,11.37
2023-05-13T02:55:27.061Z,11.38
2023-05-13T02:56:26.991Z,11.38
2023-05-13T02:57:26.947Z,11.36
2023-05-13T02:58:26.953Z,11.34
2023-05-13T02:59:26.935Z,11.33
2023-05-13T03:00:26.970Z,11.28
2023-05-13T03:01:27.075Z,11.28
2023-05-13T03:02:26.955Z,11.23
2023-05-13T03:03:26.986Z,11.19
2023-05-13T03:04:26.901Z,11.18
2023-05-13T03:05:29.096Z,11.13
2023-05-13T03:06:26.877Z,11.16
2023-05-13T03:07:26.789Z,11.13
2023-05-13T03:08:26.914Z,11.11
2023-05-13T03:09:26.888Z,11.15
2023-05-13T03:10:26.812Z,11.13
2023-05-13T03:11:26.815Z,11.12
2023-05-13T03:12:26.852Z,11.11
2023-05-13T03:13:26.747Z,11.05
2023-05-13T03:14:26.737Z,11.11
2023-05-13T03:15:26.734Z,11.08
2023-05-13T03:16:26.995Z,11.04
2023-05-13T03:17:26.725Z,11.05
2023-05-13T03:18:26.842Z,11.08
2023-05-13T03:19:26.657Z,11.05
2023-05-13T03:20:26.735Z,11.04
2023-05-13T03:21:26.680Z,11.01
2023-05-13T03:22:26.644Z,11.00
2023-05-13T03:23:26.674Z,11.00
2023-05-13T03:24:26.601Z,10.98
2023-05-13T03:25:26.566Z,10.98
2023-05-13T03:26:26.630Z,10.93
2023-05-13T03:27:26.600Z,10.93
2023-05-13T03:28:26.560Z,10.90
2023-05-13T03:29:26.612Z,10.87
2023-05-13T03:30:26.584Z,10.83
2023-05-13T03:31:26.613Z,10.83
2023-05-13T03:32:26.605Z,10.83
2023-05-13T03:33:26.500Z,10.82
2023-05-13T03:34:26.512Z,10.82
2023-05-13T03:35:26.558Z,10.80
2023-05-13T03:36:26.474Z,10.78
2023-05-13T03:37:26.496Z,10.80
2023-05-13T03:38:26.520Z,10.76
2023-05-13T03:39:26.480Z,10.75
2023-05-13T03:40:26.488Z,10.75
2023-05-13T03:41:26.417Z,10.72
2023-05-13T03:42:26.451Z,10.73
2023-05-13T03:43:26.379Z,10.73
2023-05-13T03:44:26.429Z,10.73
2023-05-13T03:45:26.445Z,10.73
2023-05-13T03:46:26.383Z,10.75
2023-05-13T03:47:26.389Z,10.75
2023-05-13T03:48:26.391Z,10.75
2023-05-13T03:49:26.383Z,10.78
2023-05-13T03:50:26.366Z,10.76
2023-05-13T03:51:26.375Z,10.73
2023-05-13T03:52:26.308Z,10.75
2023-05-13T03:53:26.389Z,10.73
2023-05-13T03:54:26.298Z,10.68
2023-05-13T03:55:26.325Z,10.68
2023-05-13T03:56:26.389Z,10.68
2023-05-13T03:57:26.331Z,10.68
2023-05-13T03:58:26.241Z,10.65
2023-05-13T03:59:26.244Z,10.65
2023-05-13T04:00:26.264Z,10.62
2023-05-13T04:01:26.241Z,10.62
2023-05-13T04:02:26.348Z,10.62
2023-05-13T04:03:26.266Z,10.61
2023-05-13T04:04:26.270Z,10.61
2023-05-13T04:05:26.260Z,10.60
2023-05-13T04:06:26.278Z,10.60
2023-05-13T04:07:26.154Z,10.60
2023-05-13T04:08:26.122Z,10.60
2023-05-13T04:09:26.276Z,10.57
2023-05-13T04:10:26.138Z,10.57
2023-05-13T04:11:26.181Z,10.57
2023-05-13T04:12:26.171Z,10.57
2023-05-13T04:13:26.126Z,10.55
2023-05-13T04:14:26.121Z,10.55
2023-05-13T04:15:26.092Z,10.58
2023-05-13T04:16:26.095Z,10.52
2023-05-13T04:17:26.177Z,10.52
2023-05-13T04:18:26.068Z,10.54
2023-05-13T04:19:26.067Z,10.48
2023-05-13T04:20:26.021Z,10.48
2023-05-13T04:21:25.984Z,10.48
2023-05-13T04:22:26.037Z,10.49
2023-05-13T04:23:25.990Z,10.54
2023-05-13T04:24:26.035Z,10.52
2023-05-13T04:25:26.011Z,10.52
2023-05-13T04:26:26.014Z,10.52
2023-05-13T04:27:25.946Z,10.54
2023-05-13T04:28:25.933Z,10.54
2023-05-13T04:29:26.024Z,10.54
2023-05-13T04:30:25.929Z,10.55
2023-05-13T04:31:25.954Z,10.58
2023-05-13T04:32:25.962Z,10.58
2023-05-13T04:33:25.892Z,10.60
2023-05-13T04:34:25.861Z,10.61
2023-05-13T04:35:25.911Z,10.65
2023-05-13T04:36:25.879Z,10.67
2023-05-13T04:37:25.873Z,10.68
2023-05-13T04:38:25.805Z,10.73
2023-05-13T04:39:25.818Z,10.76
2023-05-13T04:40:25.804Z,10.75
2023-05-13T04:41:25.822Z,10.79
2023-05-13T04:42:25.822Z,10.79
2023-05-13T04:43:25.755Z,10.83
2023-05-13T04:44:25.784Z,10.85
2023-05-13T04:45:25.722Z,10.86
2023-05-13T04:46:25.780Z,10.87
2023-05-13T04:47:25.754Z,10.90
2023-05-13T04:48:25.761Z,10.87
2023-05-13T04:49:25.735Z,10.94
2023-05-13T04:50:25.759Z,10.94
2023-05-13T04:51:25.680Z,10.95
2023-05-13T04:52:25.719Z,10.95
2023-05-13T04:53:25.721Z,11.00
2023-05-13T04:54:25.653Z,11.01
2023-05-13T04:55:27.598Z,11.01
2023-05-13T04:56:25.657Z,11.03
2023-05-13T04:57:25.796Z,11.04
2023-05-13T04:58:25.787Z,11.04
2023-05-13T04:59:25.581Z,11.08
2023-05-13T05:00:25.641Z,11.08
2023-05-13T05:01:25.622Z,11.08
2023-05-13T05:02:25.558Z,11.11
2023-05-13T05:03:25.629Z,11.12
2023-05-13T05:04:25.559Z,11.13
2023-05-13T05:05:25.541Z,11.15
2023-05-13T05:06:25.524Z,11.18
2023-05-13T05:07:25.552Z,11.19
2023-05-13T05:08:25.478Z,11.20
2023-05-13T05:09:25.532Z,11.23
2023-05-13T05:10:25.475Z,11.27
2023-05-13T05:11:25.482Z,11.30
2023-05-13T05:12:25.681Z,11.28
2023-05-13T05:13:25.461Z,11.31
2023-05-13T05:14:25.437Z,11.37
2023-05-13T05:15:25.424Z,11.37
2023-05-13T05:16:25.404Z,11.41
2023-05-13T05:17:25.591Z,11.43
2023-05-13T05:18:25.455Z,11.45
2023-05-13T05:19:25.421Z,11.49
2023-05-13T05:20:25.421Z,11.52
2023-05-13T05:21:25.346Z,11.55
2023-05-13T05:22:25.346Z,11.56
2023-05-13T05:23:25.379Z,11.61
2023-05-13T05:24:25.339Z,11.66
2023-05-13T05:25:25.358Z,11.69
2023-05-13T05:26:25.318Z,11.71
2023-05-13T05:27:25.565Z,11.76
2023-05-13T05:28:25.282Z,11.77
2023-05-13T05:29:25.305Z,11.80
2023-05-13T05:30:25.269Z,11.80
2023-05-13T05:31:25.531Z,11.87
2023-05-13T05:32:25.326Z,11.87
2023-05-13T05:33:25.242Z,11.91
2023-05-13T05:34:25.316Z,11.93
2023-05-13T05:35:25.218Z,11.97
2023-05-13T05:36:25.198Z,12.00
2023-05-13T05:37:25.348Z,12.03
2023-05-13T05:38:25.247Z,12.07
2023-05-13T05:39:25.166Z,12.08
2023-05-13T05:40:25.231Z,12.11
2023-05-13T05:41:25.187Z,12.14
2023-05-13T05:42:25.206Z,12.18
2023-05-13T05:43:25.160Z,12.17
2023-05-13T05:44:25.185Z,12.18
2023-05-13T05:45:25.152Z,12.23
2023-05-13T05:46:25.238Z,12.22
2023-05-13T05:47:25.136Z,12.23
2023-05-13T05:48:25.396Z,12.26
2023-05-13T05:49:25.068Z,12.26
2023-05-13T05:50:25.178Z,12.28
2023-05-13T05:51:25.106Z,12.29
2023-05-13T05:52:25.025Z,12.30
2023-05-13T05:53:25.035Z,12.32
2023-05-13T05:54:25.005Z,12.35
2023-05-13T05:55:25.061Z,12.36
2023-05-13T05:56:25.040Z,12.40
2023-05-13T05:57:24.968Z,12.44
2023-05-13T05:58:25.430Z,12.47
2023-05-13T05:59:24.949Z,12.50
2023-05-13T06:00:25.109Z,12.53
2023-05-13T06:01:24.961Z,12.59
2023-05-13T06:02:25.073Z,12.62
2023-05-13T06:03:25.341Z,12.68
2023-05-13T06:04:24.956Z,12.73
2023-05-13T06:05:24.950Z,12.81
2023-05-13T06:06:24.908Z,12.84
2023-05-13T06:07:24.957Z,12.87
2023-05-13T06:08:24.837Z,12.91
2023-05-13T06:09:24.814Z,12.96
2023-05-13T06:10:24.927Z,12.99
2023-05-13T06:11:24.992Z,13.05
2023-05-13T06:12:24.866Z,13.11
2023-05-13T06:13:24.790Z,13.17
2023-05-13T06:14:24.883Z,13.23
2023-05-13T06:15:24.774Z,13.30
2023-05-13T06:16:24.900Z,13.39
2023-05-13T06:17:24.757Z,13.45
2023-05-13T06:18:24.870Z,13.49
2023-05-13T06:19:24.780Z,13.55
2023-05-13T06:20:24.928Z,13.61
2023-05-13T06:21:24.711Z,13.67
2023-05-13T06:22:24.699Z,13.71
2023-05-13T06:23:24.874Z,13.75
2023-05-13T06:24:24.933Z,13.75
2023-05-13T06:25:24.673Z,13.75
2023-05-13T06:26:24.697Z,13.76
2023-05-13T06:27:24.696Z,13.79
2023-05-13T06:28:24.629Z,13.80
2023-05-13T06:29:24.608Z,13.78
2023-05-13T06:30:24.796Z,13.75
2023-05-13T06:31:24.644Z,13.72
2023-05-13T06:32:24.635Z,13.71
2023-05-13T06:33:24.696Z,13.68
2023-05-13T06:34:24.575Z,13.67
2023-05-13T06:35:24.570Z,13.72
2023-05-13T06:36:24.868Z,13.68
2023-05-13T06:37:24.564Z,13.72
2023-05-13T06:38:24.550Z,13.79
2023-05-13T06:39:24.582Z,13.83
2023-05-13T06:40:24.831Z,13.88
2023-05-13T06:41:24.522Z,13.90
2023-05-13T06:42:24.508Z,13.97
2023-05-13T06:43:24.542Z,14.01
2023-05-13T06:44:24.484Z,14.05
2023-05-13T06:45:24.476Z,14.13
2023-05-13T06:46:24.537Z,14.11
2023-05-13T06:47:24.539Z,14.15
2023-05-13T06:48:24.655Z,14.15
2023-05-13T06:49:24.401Z,14.13
2023-05-13T06:50:24.709Z,14.13
2023-05-13T06:51:24.416Z,14.13
2023-05-13T06:52:25.535Z,14.15
2023-05-13T06:53:24.495Z,14.12
2023-05-13T06:54:24.459Z,14.11
2023-05-13T06:55:24.458Z,14.09
2023-05-13T06:56:24.373Z,14.09
2023-05-13T06:57:32.281Z,14.13
2023-05-13T06:58:24.328Z,14.22
2023-05-13T06:59:24.306Z,14.27
2023-05-13T07:00:24.495Z,14.37
2023-05-13T07:01:24.358Z,14.44
2023-05-13T07:02:24.277Z,14.49
2023-05-13T07:03:24.279Z,14.56
2023-05-13T07:04:24.357Z,14.61
2023-05-13T07:05:24.250Z,14.64
2023-05-13T07:06:24.236Z,14.67
2023-05-13T07:07:24.225Z,14.66
2023-05-13T07:08:24.192Z,14.66
2023-05-13T07:09:24.198Z,14.66
2023-05-13T07:10:24.463Z,14.64
2023-05-13T07:11:24.169Z,14.64
2023-05-13T07:12:24.159Z,14.66
2023-05-13T07:13:24.156Z,14.66
2023-05-13T07:14:24.165Z,14.71
2023-05-13T07:15:24.321Z,14.79
2023-05-13T07:16:24.113Z,14.89
2023-05-13T07:17:24.197Z,14.92
2023-05-13T07:18:24.120Z,15.03
2023-05-13T07:19:24.194Z,15.07
2023-05-13T07:20:24.408Z,15.17
2023-05-13T07:21:24.069Z,15.27
2023-05-13T07:22:24.042Z,15.36
2023-05-13T07:23:24.069Z,15.45
2023-05-13T07:24:24.037Z,15.58
2023-05-13T07:25:24.045Z,15.66
2023-05-13T07:26:24.007Z,15.76
2023-05-13T07:27:23.987Z,15.87
2023-05-13T07:28:23.987Z,15.95
2023-05-13T07:29:25.858Z,15.96
2023-05-13T07:30:24.112Z,16.02
2023-05-13T07:31:24.049Z,16.08
2023-05-13T07:32:23.964Z,16.17
2023-05-13T07:33:23.931Z,16.22
2023-05-13T07:34:23.936Z,16.26
2023-05-13T07:35:24.126Z,16.26
2023-05-13T07:36:23.911Z,16.26
2023-05-13T07:37:23.893Z,16.36
2023-05-13T07:38:23.883Z,16.46
2023-05-13T07:39:23.856Z,16.49
2023-05-13T07:40:23.958Z,16.61
2023-05-13T07:41:23.952Z,16.72
2023-05-13T07:42:23.836Z,16.77
2023-05-13T07:43:24.026Z,16.87
2023-05-13T07:44:23.804Z,16.94
2023-05-13T07:45:24.048Z,16.95
2023-05-13T07:46:23.826Z,16.92
2023-05-13T07:47:23.883Z,16.88
2023-05-13T07:48:23.782Z,16.82
2023-05-13T07:49:23.761Z,16.77
2023-05-13T07:50:23.748Z,16.72
2023-05-13T07:51:23.734Z,16.64
2023-05-13T07:52:23.742Z,16.59
2023-05-13T07:53:23.716Z,16.49
2023-05-13T07:54:23.700Z,16.43
2023-05-13T07:55:23.815Z,16.39
2023-05-13T07:56:23.674Z,16.32
2023-05-13T07:57:23.666Z,16.28
2023-05-13T07:58:23.676Z,16.22
2023-05-13T07:59:23.661Z,16.18
2023-05-13T08:00:23.695Z,16.17
2023-05-13T08:01:23.638Z,16.10
2023-05-13T08:02:23.626Z,16.10
2023-05-13T08:03:23.849Z,16.08
2023-05-13T08:04:23.818Z,16.09
2023-05-13T08:05:23.876Z,16.14
2023-05-13T08:06:23.586Z,16.21
2023-05-13T08:07:23.555Z,16.25
2023-05-13T08:08:23.577Z,16.29
2023-05-13T08:09:23.591Z,16.37
2023-05-13T08:10:23.630Z,16.43
2023-05-13T08:11:23.518Z,16.51
2023-05-13T08:12:23.547Z,16.54
2023-05-13T08:13:23.518Z,16.57
2023-05-13T08:14:23.474Z,16.59
2023-05-13T08:15:23.681Z,16.65
2023-05-13T08:16:23.532Z,16.70
2023-05-13T08:17:23.567Z,16.79
2023-05-13T08:18:23.516Z,16.90
2023-05-13T08:19:23.463Z,17.01
2023-05-13T08:20:23.462Z,17.12
2023-05-13T08:21:23.466Z,17.20
2023-05-13T08:22:23.442Z,17.32
2023-05-13T08:23:30.748Z,17.49
2023-05-13T08:24:23.435Z,17.65
2023-05-13T08:25:23.622Z,17.76
2023-05-13T08:26:23.368Z,17.90
2023-05-13T08:27:23.357Z,18.06
2023-05-13T08:28:23.339Z,18.18
2023-05-13T08:29:23.363Z,18.27
2023-05-13T08:30:23.369Z,18.46
2023-05-13T08:31:23.368Z,18.58
2023-05-13T08:32:23.346Z,18.82
2023-05-13T08:33:23.279Z,18.96
2023-05-13T08:34:23.278Z,19.01
2023-05-13T08:35:23.385Z,19.13
2023-05-13T08:36:23.298Z,19.27
2023-05-13T08:37:23.240Z,19.41
2023-05-13T08:38:23.227Z,19.49
2023-05-13T08:39:23.231Z,19.60
2023-05-13T08:40:23.278Z,19.71
2023-05-13T08:41:23.236Z,19.89
2023-05-13T08:42:23.196Z,20.04
2023-05-13T08:43:23.202Z,20.14
2023-05-13T08:44:23.150Z,20.14
2023-05-13T08:45:23.296Z,20.26
2023-05-13T08:46:23.230Z,20.37
2023-05-13T08:47:23.185Z,20.53
2023-05-13T08:48:23.125Z,20.65
2023-05-13T08:49:23.135Z,20.70
2023-05-13T08:50:23.255Z,20.65
2023-05-13T08:51:23.160Z,20.70
2023-05-13T08:52:23.161Z,20.79
2023-05-13T08:53:23.089Z,20.88
2023-05-13T08:54:24.125Z,20.98
2023-05-13T08:55:23.354Z,20.93
2023-05-13T08:56:23.037Z,21.04
2023-05-13T08:57:23.045Z,21.13
2023-05-13T08:58:23.070Z,21.23
2023-05-13T08:59:23.063Z,21.29
2023-05-13T09:00:23.076Z,21.32
2023-05-13T09:01:23.064Z,21.38
2023-05-13T09:02:22.977Z,21.40
2023-05-13T09:03:22.985Z,21.44
2023-05-13T09:04:23.022Z,21.45
2023-05-13T09:05:23.379Z,21.60
2023-05-13T09:06:22.973Z,21.69
2023-05-13T09:07:22.976Z,21.77
2023-05-13T09:08:22.956Z,21.80
2023-05-13T09:09:22.901Z,21.88
2023-05-13T09:10:22.892Z,21.97
2023-05-13T09:11:22.886Z,22.09
2023-05-13T09:12:22.979Z,22.18
2023-05-13T09:13:22.879Z,22.28
2023-05-13T09:14:22.891Z,22.34
2023-05-13T09:15:23.153Z,22.43
2023-05-13T09:16:22.945Z,22.44
2023-05-13T09:17:22.887Z,22.52
2023-05-13T09:18:22.910Z,22.59
2023-05-13T09:19:22.932Z,22.71
2023-05-13T09:20:22.799Z,22.81
2023-05-13T09:21:22.824Z,22.85
2023-05-13T09:22:22.794Z,22.92
2023-05-13T09:23:22.758Z,22.98
2023-05-13T09:24:22.780Z,23.08
2023-05-13T09:25:23.020Z,23.21
2023-05-13T09:26:22.724Z,23.28
2023-05-13T09:27:22.733Z,23.26
2023-05-13T09:28:22.728Z,23.06
2023-05-13T09:29:22.723Z,23.03
2023-05-13T09:30:22.698Z,22.86
2023-05-13T09:31:22.779Z,22.93
2023-05-13T09:32:22.663Z,22.95
2023-05-13T09:33:22.720Z,22.99
2023-05-13T09:34:22.677Z,23.08
2023-05-13T09:35:22.979Z,23.21
2023-05-13T09:36:22.628Z,23.28
2023-05-13T09:37:22.650Z,23.33
2023-05-13T09:38:22.625Z,23.37
2023-05-13T09:39:22.624Z,23.22
2023-05-13T09:40:22.855Z,23.03
2023-05-13T09:41:22.637Z,23.10
2023-05-13T09:42:22.564Z,22.95
2023-05-13T09:43:22.575Z,22.88
2023-05-13T09:44:22.580Z,23.06
2023-05-13T09:45:22.813Z,23.26
2023-05-13T09:46:22.541Z,23.37
2023-05-13T09:47:22.544Z,23.36
2023-05-13T09:48:22.524Z,23.46
2023-05-13T09:49:22.512Z,23.61
2023-05-13T09:50:22.723Z,23.76
2023-05-13T09:51:22.502Z,23.91
2023-05-13T09:52:22.468Z,24.04
2023-05-13T09:53:22.496Z,24.22
2023-05-13T09:54:22.473Z,24.31
2023-05-13T09:55:22.468Z,24.48
2023-05-13T09:56:22.455Z,24.53
2023-05-13T09:57:22.457Z,24.65
2023-05-13T09:58:22.406Z,24.82
2023-05-13T09:59:22.415Z,24.91
2023-05-13T10:00:32.040Z,25.01
2023-05-13T10:01:22.473Z,25.09
2023-05-13T10:02:22.512Z,25.12
2023-05-13T10:03:22.458Z,25.03
2023-05-13T10:04:22.411Z,24.97
2023-05-13T10:05:22.366Z,24.99
2023-05-13T10:06:22.331Z,24.96
2023-05-13T10:07:22.340Z,24.94
2023-05-13T10:08:22.351Z,25.04
2023-05-13T10:09:22.341Z,25.04
2023-05-13T10:10:22.455Z,25.15
2023-05-13T10:11:22.290Z,25.12
2023-05-13T10:12:22.285Z,25.22
2023-05-13T10:13:22.273Z,25.36
2023-05-13T10:14:22.287Z,25.58
2023-05-13T10:15:22.264Z,25.70
2023-05-13T10:16:22.291Z,25.83
2023-05-13T10:17:22.267Z,25.77
2023-05-13T10:18:22.234Z,25.63
2023-05-13T10:19:22.272Z,25.53
2023-05-13T10:20:22.489Z,25.51
2023-05-13T10:21:22.216Z,25.45
2023-05-13T10:22:22.198Z,25.40
2023-05-13T10:23:22.205Z,25.36
2023-05-13T10:24:22.194Z,25.46
2023-05-13T10:25:22.162Z,25.48
2023-05-13T10:26:22.177Z,25.46
2023-05-13T10:27:22.288Z,25.43
2023-05-13T10:28:22.150Z,25.31
2023-05-13T10:29:22.148Z,25.53
2023-05-13T10:30:22.227Z,25.59
2023-05-13T10:31:22.143Z,25.70
2023-05-13T10:32:22.160Z,25.89
2023-05-13T10:33:22.137Z,26.01
2023-05-13T10:34:22.110Z,26.11
2023-05-13T10:35:22.085Z,26.26
2023-05-13T10:36:22.101Z,26.28
2023-05-13T10:37:22.047Z,26.34
2023-05-13T10:38:22.073Z,26.46
2023-05-13T10:39:22.063Z,26.58
2023-05-13T10:40:22.346Z,26.63
2023-05-13T10:41:22.010Z,26.82
2023-05-13T10:42:21.976Z,26.64
2023-05-13T10:43:22.052Z,26.57
2023-05-13T10:44:22.030Z,26.80
2023-05-13T10:45:21.998Z,26.86
2023-05-13T10:46:22.070Z,26.95
2023-05-13T10:47:22.019Z,26.97
2023-05-13T10:48:22.065Z,27.07
2023-05-13T10:49:21.976Z,26.93
2023-05-13T10:50:22.374Z,26.80
2023-05-13T10:51:21.925Z,26.88
2023-05-13T10:52:21.933Z,26.85
2023-05-13T10:53:21.972Z,26.94
2023-05-13T10:54:21.911Z,27.13
2023-05-13T10:55:21.916Z,27.31
2023-05-13T10:56:21.961Z,27.38
2023-05-13T10:57:21.932Z,27.42
2023-05-13T10:58:21.857Z,27.60
2023-05-13T10:59:21.844Z,27.69
2023-05-13T11:00:22.061Z,27.88
2023-05-13T11:01:21.837Z,28.07
2023-05-13T11:02:21.949Z,28.00
2023-05-13T11:03:21.892Z,27.72
2023-05-13T11:04:21.833Z,27.34
2023-05-13T11:05:21.909Z,27.00
2023-05-13T11:06:21.796Z,26.71
2023-05-13T11:07:21.810Z,26.46
2023-05-13T11:08:21.783Z,26.12
2023-05-13T11:09:21.765Z,25.86
2023-05-13T11:10:22.049Z,25.52
2023-05-13T11:11:21.820Z,25.18
2023-05-13T11:12:21.909Z,24.90
2023-05-13T11:13:21.759Z,24.58
2023-05-13T11:14:21.810Z,24.37
2023-05-13T11:15:21.701Z,24.15
2023-05-13T11:16:21.692Z,23.97
2023-05-13T11:17:21.780Z,23.71
2023-05-13T11:18:21.745Z,23.55
2023-05-13T11:19:21.687Z,23.39
2023-05-13T11:20:21.915Z,23.23
2023-05-13T11:21:21.732Z,23.08
2023-05-13T11:22:21.619Z,22.95
2023-05-13T11:23:21.706Z,22.83
2023-05-13T11:24:21.681Z,22.73
2023-05-13T11:25:21.610Z,22.67
2023-05-13T11:26:21.655Z,22.59
2023-05-13T11:27:21.610Z,22.53
2023-05-13T11:28:21.622Z,22.46
2023-05-13T11:29:21.549Z,22.36
2023-05-13T11:30:21.972Z,22.31
2023-05-13T11:31:21.661Z,22.22
2023-05-13T11:32:21.572Z,22.13
2023-05-13T11:33:21.571Z,22.12
2023-05-13T11:34:21.576Z,22.07
2023-05-13T11:35:21.611Z,22.06
2023-05-13T11:36:21.507Z,22.03
2023-05-13T11:37:21.505Z,22.01
2023-05-13T11:38:21.478Z,21.98
2023-05-13T11:39:21.556Z,21.96
2023-05-13T11:40:21.653Z,21.94
2023-05-13T11:41:21.482Z,21.94
2023-05-13T11:42:21.430Z,21.88
2023-05-13T11:43:21.440Z,21.81
2023-05-13T11:44:21.558Z,21.80
2023-05-13T11:45:21.639Z,21.82
2023-05-13T11:46:21.449Z,21.85
2023-05-13T11:47:21.396Z,21.88
2023-05-13T11:48:21.519Z,21.91
2023-05-13T11:49:21.376Z,21.90
2023-05-13T11:50:21.357Z,21.90
2023-05-13T11:51:21.378Z,21.94
2023-05-13T11:52:21.646Z,21.96
2023-05-13T11:53:21.343Z,21.94
2023-05-13T11:54:21.349Z,21.93
2023-05-13T11:55:21.505Z,21.94
2023-05-13T11:56:21.274Z,21.97
2023-05-13T11:57:21.437Z,21.97
2023-05-13T11:58:21.284Z,21.97
2023-05-13T11:59:21.227Z,21.97
2023-05-13T12:00:21.283Z,21.90
2023-05-13T12:01:21.302Z,21.75
2023-05-13T12:02:21.347Z,21.62
2023-05-13T12:03:21.321Z,21.60
2023-05-13T12:04:21.199Z,21.56
2023-05-13T12:05:21.414Z,21.50
2023-05-13T12:06:21.242Z,21.41
2023-05-13T12:07:21.223Z,21.37
2023-05-13T12:08:23.692Z,21.23
2023-05-13T12:09:21.284Z,21.20
2023-05-13T12:10:21.161Z,21.16
2023-05-13T12:11:21.150Z,21.04
2023-05-13T12:12:21.192Z,20.83
2023-05-13T12:13:21.120Z,20.73
2023-05-13T12:14:21.094Z,20.49
2023-05-13T12:15:21.524Z,20.32
2023-05-13T12:16:21.108Z,20.27
2023-05-13T12:17:21.137Z,20.30
2023-05-13T12:18:21.155Z,20.33
2023-05-13T12:19:21.108Z,20.39
2023-05-13T12:20:21.059Z,20.50
2023-05-13T12:21:21.037Z,20.55
2023-05-13T12:22:21.005Z,20.67
2023-05-13T12:23:21.067Z,20.80
2023-05-13T12:24:20.999Z,20.88
2023-05-13T12:25:21.204Z,20.90
2023-05-13T12:26:21.033Z,20.89
2023-05-13T12:27:21.036Z,20.95
2023-05-13T12:28:21.063Z,21.05
2023-05-13T12:29:20.926Z,21.26
2023-05-13T12:30:20.968Z,21.59
2023-05-13T12:31:20.963Z,21.71
2023-05-13T12:32:21.041Z,22.15
2023-05-13T12:33:20.939Z,22.46
2023-05-13T12:34:20.875Z,22.67
2023-05-13T12:35:21.135Z,22.81
2023-05-13T12:36:20.984Z,23.11
2023-05-13T12:37:20.858Z,23.17
2023-05-13T12:38:20.946Z,23.07
2023-05-13T12:39:20.909Z,22.96
2023-05-13T12:40:20.857Z,22.91
2023-05-13T12:41:20.834Z,22.89
2023-05-13T12:42:20.804Z,22.85
2023-05-13T12:43:20.833Z,22.66
2023-05-13T12:44:20.797Z,22.40
2023-05-13T12:45:21.029Z,21.85
2023-05-13T12:46:20.784Z,21.69
2023-05-13T12:47:20.998Z,21.55
2023-05-13T12:48:20.862Z,21.30
2023-05-13T12:49:20.716Z,21.20
2023-05-13T12:50:20.777Z,21.08
2023-05-13T12:51:20.751Z,20.92
2023-05-13T12:52:20.762Z,20.83